NGN2 EDDS-EDDL
Flight info
| Callsign | NGN2 |
|---|---|
| Flight time | N/A |
| Altitude | 22000 |
| Route | TAGIK2H TAGIK Z3 ABUMO N850 GISEM Z505 ARPEG Z850 ADEMI T854 DOMUX DOMUX1A |
| Aircraft | C25C/M-SDE2E3FGHRWXY/LB1 |
Departure
| Time | 2026-05-04 16:50 |
|---|---|
| Airport | Stuttgart Airport (EDDS) |
Arrival
| Time | N/A |
|---|---|
| Airport | Düsseldorf Airport (EDDL) |
| Time | Latitude | Longitude | Altitude | Speed | Heading |
|---|---|---|---|---|---|
| 2026-05-04 16:27 | 48.69121 | 9.20829 | 1279 ft | 0 kts | 162° |
| 2026-05-04 16:43 | 48.69089 | 9.20844 | 1279 ft | 7 kts | 166° |
| 2026-05-04 16:43 | 48.68988 | 9.20838 | 1279 ft | 6 kts | 258° |
| 2026-05-04 16:43 | 48.68967 | 9.20718 | 1279 ft | 14 kts | 254° |
| 2026-05-04 16:44 | 48.68859 | 9.20148 | 1279 ft | 12 kts | 253° |
| 2026-05-04 16:45 | 48.68838 | 9.20040 | 1279 ft | 0 kts | 253° |
| 2026-05-04 16:46 | 48.68828 | 9.20003 | 1279 ft | 4 kts | 235° |
| 2026-05-04 16:46 | 48.68717 | 9.19971 | 1279 ft | 0 kts | 163° |
| 2026-05-04 16:48 | 48.68663 | 9.19995 | 1279 ft | 0 kts | 164° |
| 2026-05-04 16:49 | 48.68589 | 9.20094 | 1279 ft | 7 kts | 79° |
| 2026-05-04 16:49 | 48.68598 | 9.20141 | 1279 ft | 0 kts | 73° |
| 2026-05-04 16:50 | 48.68805 | 9.21184 | 1482 ft | 137 kts | 71° |
| 2026-05-04 16:50 | 48.69427 | 9.24440 | 3364 ft | 179 kts | 69° |
| 2026-05-04 16:51 | 48.70124 | 9.28343 | 4762 ft | 196 kts | 72° |
| 2026-05-04 16:51 | 48.70518 | 9.30357 | 5328 ft | 203 kts | 75° |
| 2026-05-04 16:51 | 48.71317 | 9.34514 | 7191 ft | 212 kts | 77° |
| 2026-05-04 16:52 | 48.72144 | 9.38861 | 8955 ft | 219 kts | 78° |
| 2026-05-04 16:52 | 48.72833 | 9.40944 | 9814 ft | 231 kts | 48° |
| 2026-05-04 16:53 | 48.75976 | 9.42836 | 10678 ft | 272 kts | 9° |
| 2026-05-04 16:53 | 48.81393 | 9.41348 | 12543 ft | 274 kts | 332° |
| 2026-05-04 16:54 | 48.83170 | 9.40032 | 12622 ft | 294 kts | 330° |
| 2026-05-04 16:55 | 48.90448 | 9.34121 | 14112 ft | 296 kts | 309° |
| 2026-05-04 16:55 | 48.91883 | 9.28462 | 14756 ft | 290 kts | 276° |
| 2026-05-04 16:56 | 48.92592 | 9.22085 | 14821 ft | 329 kts | 276° |
| 2026-05-04 16:56 | 48.93744 | 9.11330 | 16868 ft | 351 kts | 277° |
| 2026-05-04 16:57 | 48.94139 | 9.07605 | 17722 ft | 354 kts | 276° |
| 2026-05-04 16:57 | 48.95075 | 9.00210 | 19244 ft | 366 kts | 289° |
| 2026-05-04 16:58 | 49.00976 | 8.92833 | 21528 ft | 395 kts | 346° |
| 2026-05-04 16:58 | 49.03743 | 8.92723 | 21644 ft | 408 kts | 4° |
| 2026-05-04 16:59 | 49.09486 | 8.93604 | 21958 ft | 408 kts | 4° |
| 2026-05-04 17:00 | 49.20853 | 8.95156 | 21972 ft | 414 kts | 4° |
| 2026-05-04 17:00 | 49.29625 | 8.96381 | 21980 ft | 422 kts | 4° |
| 2026-05-04 17:01 | 49.35544 | 8.97206 | 21981 ft | 427 kts | 4° |
| 2026-05-04 17:01 | 49.41409 | 8.98036 | 21978 ft | 419 kts | 4° |
| 2026-05-04 17:02 | 49.47204 | 8.98842 | 21979 ft | 422 kts | 4° |
| 2026-05-04 17:02 | 49.53099 | 8.99673 | 21990 ft | 428 kts | 3° |
| 2026-05-04 17:03 | 49.56077 | 9.00087 | 21991 ft | 430 kts | 3° |
| 2026-05-04 17:03 | 49.59064 | 9.00489 | 21993 ft | 432 kts | 3° |
| 2026-05-04 17:03 | 49.65078 | 9.01333 | 21996 ft | 435 kts | 3° |
| 2026-05-04 17:04 | 49.71100 | 9.02210 | 21993 ft | 435 kts | 3° |
| 2026-05-04 17:04 | 49.76999 | 9.03057 | 21991 ft | 424 kts | 3° |
| 2026-05-04 17:05 | 49.82920 | 9.03913 | 21984 ft | 430 kts | 4° |
| 2026-05-04 17:05 | 49.88873 | 9.04775 | 21997 ft | 434 kts | 3° |
| 2026-05-04 17:06 | 49.94766 | 9.03864 | 21978 ft | 427 kts | 338° |
| 2026-05-04 17:06 | 49.97553 | 9.02337 | 21979 ft | 420 kts | 336° |
| 2026-05-04 17:07 | 50.02935 | 8.98954 | 21978 ft | 429 kts | 336° |
| 2026-05-04 17:07 | 50.04837 | 8.97845 | 21981 ft | 427 kts | 336° |
| 2026-05-04 17:07 | 50.08530 | 8.95716 | 21988 ft | 431 kts | 336° |
| 2026-05-04 17:07 | 50.11273 | 8.94077 | 21987 ft | 424 kts | 335° |
| 2026-05-04 17:08 | 50.14053 | 8.92463 | 21982 ft | 429 kts | 340° |
| 2026-05-04 17:08 | 50.20009 | 8.91127 | 21972 ft | 422 kts | 348° |
| 2026-05-04 17:08 | 50.22828 | 8.90505 | 21968 ft | 395 kts | 349° |
| 2026-05-04 17:09 | 50.25475 | 8.89954 | 21970 ft | 374 kts | 349° |
| 2026-05-04 17:09 | 50.28002 | 8.89428 | 21966 ft | 358 kts | 349° |
| 2026-05-04 17:09 | 50.30530 | 8.88891 | 21968 ft | 378 kts | 348° |
| 2026-05-04 17:10 | 50.36109 | 8.87721 | 21987 ft | 417 kts | 349° |
| 2026-05-04 17:10 | 50.44783 | 8.85902 | 21985 ft | 421 kts | 349° |
| 2026-05-04 17:11 | 50.47694 | 8.85296 | 21980 ft | 421 kts | 349° |
| 2026-05-04 17:11 | 50.50596 | 8.84681 | 21980 ft | 422 kts | 349° |
| 2026-05-04 17:11 | 50.56384 | 8.83261 | 21963 ft | 418 kts | 339° |
| 2026-05-04 17:12 | 50.58932 | 8.81162 | 21961 ft | 411 kts | 322° |
| 2026-05-04 17:12 | 50.63312 | 8.75415 | 21975 ft | 410 kts | 315° |
| 2026-05-04 17:13 | 50.70247 | 8.67382 | 21969 ft | 412 kts | 321° |
| 2026-05-04 17:14 | 50.76348 | 8.60182 | 21973 ft | 411 kts | 320° |
| 2026-05-04 17:14 | 50.78666 | 8.57524 | 21971 ft | 411 kts | 320° |
| 2026-05-04 17:14 | 50.83277 | 8.52162 | 21972 ft | 411 kts | 320° |
| 2026-05-04 17:15 | 50.85578 | 8.49471 | 21971 ft | 411 kts | 320° |
| 2026-05-04 17:15 | 50.90187 | 8.44095 | 21989 ft | 412 kts | 320° |
| 2026-05-04 17:16 | 50.94767 | 8.38732 | 21991 ft | 412 kts | 320° |
| 2026-05-04 17:16 | 51.01694 | 8.30627 | 21999 ft | 413 kts | 322° |
| 2026-05-04 17:17 | 51.04119 | 8.28162 | 21979 ft | 411 kts | 317° |
| 2026-05-04 17:17 | 51.07462 | 8.16272 | 21991 ft | 395 kts | 282° |
| 2026-05-04 17:18 | 51.08204 | 8.12069 | 21991 ft | 396 kts | 284° |
| 2026-05-04 17:18 | 51.10339 | 8.04156 | 21128 ft | 385 kts | 296° |
| 2026-05-04 17:19 | 51.13058 | 7.96791 | 20075 ft | 365 kts | 295° |
| 2026-05-04 17:19 | 51.15140 | 7.89685 | 19050 ft | 346 kts | 288° |
| 2026-05-04 17:20 | 51.16767 | 7.82588 | 18010 ft | 341 kts | 295° |
| 2026-05-04 17:20 | 51.19751 | 7.75919 | 16908 ft | 385 kts | 301° |
| 2026-05-04 17:20 | 51.21128 | 7.72302 | 16373 ft | 371 kts | 294° |
| 2026-05-04 17:21 | 51.23218 | 7.65142 | 15332 ft | 352 kts | 293° |
| 2026-05-04 17:21 | 51.25524 | 7.58186 | 14321 ft | 356 kts | 295° |
| 2026-05-04 17:22 | 51.26661 | 7.54667 | 13826 ft | 357 kts | 294° |
| 2026-05-04 17:22 | 51.27789 | 7.51110 | 13269 ft | 358 kts | 294° |
| 2026-05-04 17:23 | 51.31195 | 7.40525 | 10654 ft | 343 kts | 295° |
| 2026-05-04 17:23 | 51.32240 | 7.37252 | 9652 ft | 320 kts | 295° |
| 2026-05-04 17:23 | 51.34177 | 7.31184 | 7547 ft | 295 kts | 294° |
| 2026-05-04 17:24 | 51.35067 | 7.28397 | 7010 ft | 266 kts | 295° |
| 2026-05-04 17:24 | 51.37482 | 7.20788 | 6017 ft | 258 kts | 294° |
| 2026-05-04 17:25 | 51.38298 | 7.18222 | 5681 ft | 260 kts | 295° |
| 2026-05-04 17:25 | 51.39952 | 7.13023 | 4984 ft | 264 kts | 294° |
| 2026-05-04 17:26 | 51.41526 | 7.08046 | 4307 ft | 232 kts | 294° |
| 2026-05-04 17:26 | 51.42343 | 7.01081 | 3990 ft | 215 kts | 229° |
| 2026-05-04 17:27 | 51.39533 | 7.00110 | 3999 ft | 229 kts | 167° |
| 2026-05-04 17:27 | 51.36840 | 6.97996 | 3959 ft | 229 kts | 229° |
| 2026-05-04 17:28 | 51.34977 | 6.94115 | 3629 ft | 251 kts | 237° |